Herd, Oklahoma
Current Conditions -  °F | °C
As of 3:53 PM on Thursday 23 Oct 2014 (Local Time) from KBVO Reporting Station
Scattered Clouds Scattered Clouds  
Wind Chill: 71°   Ceiling: Unl
Heat Index: 71°   Visibility: 10mi
Dew Point: 60°   Wind: 8mph
Humidity: 68%   Direction: 160°SSE
Pressure: 30.08"   Gusts: NA
Location:  36.8094°N, 96.3005°W
Report Text: KBVO 232053Z AUTO 16007KT 10SM SCT026 22/16 A3008 RMK AO2 SLP177 T02170156 56011
Loading
Personal Weather Stations






























Interactive Weather Map
Tropical Storm Tracking
New forecast layout! Learn more

10-Day Weather Forecast

Advertisements
Track Severe Weather on mobile